sensor_id;sensor_type;location;lat;lon;timestamp;pressure;altitude;pressure_sealevel;temperature;humidity
81931;BME280;71395;43.488;1.472;2023-07-13T00:14:21;100007.22;;;27.46;49.99
81931;BME280;71395;43.488;1.472;2023-07-13T00:16:46;100087.44;;;27.98;49.99
81931;BME280;71395;43.488;1.472;2023-07-13T00:21:50;100055.69;;;27.77;49.83
81931;BME280;71395;43.488;1.472;2023-07-13T00:24:17;100103.78;;;28.10;49.76
81931;BME280;71395;43.488;1.472;2023-07-13T00:26:48;100061.59;;;27.79;49.86
81931;BME280;71395;43.488;1.472;2023-07-13T00:29:14;100038.91;;;27.63;49.90
81931;BME280;71395;43.488;1.472;2023-07-13T00:31:41;100103.78;;;28.10;49.79
81931;BME280;71395;43.488;1.472;2023-07-13T00:34:07;100069.13;;;27.82;49.59
81931;BME280;71395;43.488;1.472;2023-07-13T01:07:35;99991.75;;;27.38;50.05
81931;BME280;71395;43.488;1.472;2023-07-13T01:10:02;100036.16;;;27.63;50.04
81931;BME280;71395;43.488;1.472;2023-07-13T03:24:45;100089.34;;;27.41;49.71
81931;BME280;71395;43.488;1.472;2023-07-13T03:27:13;100111.28;;;27.60;49.67
81931;BME280;71395;43.488;1.472;2023-07-13T03:29:38;100171.63;;;27.92;49.54
81931;BME280;71395;43.488;1.472;2023-07-13T03:32:04;100086.16;;;27.39;49.35
81931;BME280;71395;43.488;1.472;2023-07-13T03:42:16;100171.88;;;27.83;49.00
81931;BME280;71395;43.488;1.472;2023-07-13T03:44:42;100178.47;;;27.75;48.74
81931;BME280;71395;43.488;1.472;2023-07-13T03:54:56;100190.13;;;27.91;48.49
81931;BME280;71395;43.488;1.472;2023-07-13T03:57:22;100170.53;;;27.73;47.84
81931;BME280;71395;43.488;1.472;2023-07-13T03:59:49;100135.22;;;27.56;48.02
81931;BME280;71395;43.488;1.472;2023-07-13T04:07:25;100190.78;;;27.85;47.27
81931;BME280;71395;43.488;1.472;2023-07-13T04:09:51;100095.28;;;27.20;47.52
81931;BME280;71395;43.488;1.472;2023-07-13T04:56:18;100203.59;;;27.50;45.83
81931;BME280;71395;43.488;1.472;2023-07-13T05:16:51;100203.94;;;27.26;45.08
81931;BME280;71395;43.488;1.472;2023-07-13T05:19:16;100234.91;;;27.42;45.47
81931;BME280;71395;43.488;1.472;2023-07-13T05:21:42;100205.59;;;27.30;45.09
81931;BME280;71395;43.488;1.472;2023-07-13T05:24:08;100215.16;;;27.37;44.68
81931;BME280;71395;43.488;1.472;2023-07-13T05:29:08;100240.59;;;27.53;44.92
81931;BME280;71395;43.488;1.472;2023-07-13T06:16:39;100297.53;;;27.68;43.98
81931;BME280;71395;43.488;1.472;2023-07-13T06:19:06;100299.91;;;27.70;44.17
81931;BME280;71395;43.488;1.472;2023-07-13T06:21:32;100217.84;;;27.14;44.26
81931;BME280;71395;43.488;1.472;2023-07-13T06:23:58;100264.41;;;27.42;43.81
81931;BME280;71395;43.488;1.472;2023-07-13T06:29:09;100324.09;;;27.76;43.96
81931;BME280;71395;43.488;1.472;2023-07-13T06:31:34;100251.16;;;27.28;43.45
81931;BME280;71395;43.488;1.472;2023-07-13T06:34:01;100275.72;;;27.37;43.44
81931;BME280;71395;43.488;1.472;2023-07-13T06:41:37;100321.13;;;27.66;43.52
81931;BME280;71395;43.488;1.472;2023-07-13T06:44:04;100338.28;;;27.78;43.63
81931;BME280;71395;43.488;1.472;2023-07-13T06:46:30;100310.53;;;27.68;43.41
81931;BME280;71395;43.488;1.472;2023-07-13T06:48:56;100334.75;;;27.78;42.95
81931;BME280;71395;43.488;1.472;2023-07-13T06:51:21;100330.53;;;27.65;42.73
81931;BME280;71395;43.488;1.472;2023-07-13T06:53:47;100341.50;;;27.61;42.43
81931;BME280;71395;43.488;1.472;2023-07-13T06:56:13;100345.84;;;27.43;42.72
81931;BME280;71395;43.488;1.472;2023-07-13T06:58:38;100343.91;;;27.24;42.62
81931;BME280;71395;43.488;1.472;2023-07-13T07:01:04;100358.50;;;27.09;42.97
81931;BME280;71395;43.488;1.472;2023-07-13T07:03:30;100362.00;;;26.90;43.28
81931;BME280;71395;43.488;1.472;2023-07-13T07:06:17;100365.31;;;26.79;42.61
81931;BME280;71395;43.488;1.472;2023-07-13T07:08:43;100354.97;;;26.57;43.46
81931;BME280;71395;43.488;1.472;2023-07-13T07:11:16;100353.66;;;26.51;43.79
81931;BME280;71395;43.488;1.472;2023-07-13T07:13:42;100361.09;;;26.50;44.07
81931;BME280;71395;43.488;1.472;2023-07-13T07:16:08;100363.56;;;26.40;43.53
81931;BME280;71395;43.488;1.472;2023-07-13T07:18:34;100364.72;;;26.39;43.83
81931;BME280;71395;43.488;1.472;2023-07-13T07:21:00;100374.91;;;26.38;43.60
81931;BME280;71395;43.488;1.472;2023-07-13T07:23:26;100370.94;;;26.36;43.83
81931;BME280;71395;43.488;1.472;2023-07-13T07:25:51;100373.94;;;26.30;44.09
81931;BME280;71395;43.488;1.472;2023-07-13T07:28:17;100377.66;;;26.22;43.62
81931;BME280;71395;43.488;1.472;2023-07-13T07:30:47;100372.69;;;26.12;43.94
81931;BME280;71395;43.488;1.472;2023-07-13T07:33:13;100367.88;;;25.93;44.15
81931;BME280;71395;43.488;1.472;2023-07-13T07:35:39;100375.31;;;25.93;44.02
81931;BME280;71395;43.488;1.472;2023-07-13T07:38:05;100376.81;;;25.90;44.41
81931;BME280;71395;43.488;1.472;2023-07-13T07:40:30;100365.53;;;25.80;44.50
81931;BME280;71395;43.488;1.472;2023-07-13T07:42:56;100363.53;;;25.76;44.66
81931;BME280;71395;43.488;1.472;2023-07-13T07:45:22;100371.75;;;25.76;44.88
81931;BME280;71395;43.488;1.472;2023-07-13T07:47:47;100366.03;;;25.69;44.99
81931;BME280;71395;43.488;1.472;2023-07-13T07:50:13;100368.34;;;25.67;45.04
81931;BME280;71395;43.488;1.472;2023-07-13T07:52:39;100371.41;;;25.66;44.66
81931;BME280;71395;43.488;1.472;2023-07-13T07:55:06;100358.28;;;25.59;44.91
81931;BME280;71395;43.488;1.472;2023-07-13T07:57:32;100363.44;;;25.61;45.59
81931;BME280;71395;43.488;1.472;2023-07-13T07:59:58;100364.16;;;25.58;45.35
81931;BME280;71395;43.488;1.472;2023-07-13T08:02:24;100370.00;;;25.56;44.86
81931;BME280;71395;43.488;1.472;2023-07-13T08:04:51;100386.47;;;25.56;45.18
81931;BME280;71395;43.488;1.472;2023-07-13T08:07:16;100370.69;;;25.53;45.40
81931;BME280;71395;43.488;1.472;2023-07-13T08:09:42;100376.97;;;25.53;45.12
81931;BME280;71395;43.488;1.472;2023-07-13T08:12:08;100362.22;;;25.46;45.47
81931;BME280;71395;43.488;1.472;2023-07-13T08:14:33;100372.88;;;25.47;45.30
81931;BME280;71395;43.488;1.472;2023-07-13T08:16:59;100358.78;;;25.49;45.47
81931;BME280;71395;43.488;1.472;2023-07-13T08:19:24;100367.13;;;25.52;45.48
81931;BME280;71395;43.488;1.472;2023-07-13T08:21:50;100374.13;;;25.50;45.16
81931;BME280;71395;43.488;1.472;2023-07-13T08:24:16;100373.56;;;25.44;45.34
81931;BME280;71395;43.488;1.472;2023-07-13T08:26:44;100360.09;;;25.39;45.45
81931;BME280;71395;43.488;1.472;2023-07-13T08:29:10;100373.25;;;25.34;44.94
81931;BME280;71395;43.488;1.472;2023-07-13T08:31:36;100350.66;;;25.24;44.91
81931;BME280;71395;43.488;1.472;2023-07-13T08:34:01;100365.72;;;25.31;45.43
81931;BME280;71395;43.488;1.472;2023-07-13T08:36:29;100363.22;;;25.25;45.23
81931;BME280;71395;43.488;1.472;2023-07-13T08:38:54;100379.78;;;25.29;45.17
81931;BME280;71395;43.488;1.472;2023-07-13T08:41:20;100368.25;;;25.23;45.13
81931;BME280;71395;43.488;1.472;2023-07-13T08:43:51;100361.97;;;25.23;44.95
81931;BME280;71395;43.488;1.472;2023-07-13T08:46:32;100370.31;;;25.26;44.87
81931;BME280;71395;43.488;1.472;2023-07-13T08:49:02;100375.81;;;25.26;44.68
81931;BME280;71395;43.488;1.472;2023-07-13T08:51:48;100369.28;;;25.31;45.00
81931;BME280;71395;43.488;1.472;2023-07-13T08:54:34;100368.03;;;25.29;44.38
81931;BME280;71395;43.488;1.472;2023-07-13T08:57:09;100356.94;;;25.25;44.17
81931;BME280;71395;43.488;1.472;2023-07-13T08:59:35;100361.63;;;25.24;44.83
81931;BME280;71395;43.488;1.472;2023-07-13T09:05:04;100362.16;;;25.30;45.02
81931;BME280;71395;43.488;1.472;2023-07-13T09:10:22;100356.78;;;25.34;44.54
81931;BME280;71395;43.488;1.472;2023-07-13T09:15:40;100358.63;;;25.30;44.88
81931;BME280;71395;43.488;1.472;2023-07-13T09:20:48;100347.00;;;25.20;44.21
81931;BME280;71395;43.488;1.472;2023-07-13T09:23:17;100342.47;;;25.12;44.28
81931;BME280;71395;43.488;1.472;2023-07-13T09:25:47;100369.97;;;25.28;44.26
81931;BME280;71395;43.488;1.472;2023-07-13T09:28:26;100366.88;;;25.30;44.02
81931;BME280;71395;43.488;1.472;2023-07-13T09:31:04;100358.63;;;25.30;43.82
81931;BME280;71395;43.488;1.472;2023-07-13T09:33:31;100362.53;;;25.29;43.94
81931;BME280;71395;43.488;1.472;2023-07-13T09:35:59;100361.38;;;25.30;44.00
81931;BME280;71395;43.488;1.472;2023-07-13T09:38:29;100359.53;;;25.34;44.35
81931;BME280;71395;43.488;1.472;2023-07-13T09:44:10;100369.72;;;25.33;44.68
81931;BME280;71395;43.488;1.472;2023-07-13T09:46:45;100357.16;;;25.32;44.44
81931;BME280;71395;43.488;1.472;2023-07-13T09:49:12;100360.94;;;25.27;44.83
81931;BME280;71395;43.488;1.472;2023-07-13T09:51:40;100360.59;;;25.29;44.72
81931;BME280;71395;43.488;1.472;2023-07-13T09:54:18;100364.13;;;25.30;44.67
81931;BME280;71395;43.488;1.472;2023-07-13T09:56:43;100364.91;;;25.30;44.60
81931;BME280;71395;43.488;1.472;2023-07-13T09:59:20;100359.53;;;25.34;44.32
81931;BME280;71395;43.488;1.472;2023-07-13T10:01:46;100348.56;;;25.34;44.76
81931;BME280;71395;43.488;1.472;2023-07-13T10:04:14;100358.75;;;25.33;44.36
81931;BME280;71395;43.488;1.472;2023-07-13T10:06:44;100371.88;;;25.40;44.64
81931;BME280;71395;43.488;1.472;2023-07-13T10:09:16;100375.28;;;25.49;44.58
81931;BME280;71395;43.488;1.472;2023-07-13T10:11:42;100370.69;;;25.53;44.26
81931;BME280;71395;43.488;1.472;2023-07-13T10:16:36;100364.94;;;25.58;44.98
81931;BME280;71395;43.488;1.472;2023-07-13T10:19:09;100371.78;;;25.64;44.67
81931;BME280;71395;43.488;1.472;2023-07-13T10:21:41;100365.69;;;25.71;44.95
81931;BME280;71395;43.488;1.472;2023-07-13T10:24:21;100374.59;;;25.80;44.35
81931;BME280;71395;43.488;1.472;2023-07-13T10:27:17;100379.38;;;25.83;44.46
81931;BME280;71395;43.488;1.472;2023-07-13T10:29:52;100379.94;;;25.89;44.36
81931;BME280;71395;43.488;1.472;2023-07-13T10:32:21;100383.13;;;25.91;44.97
81931;BME280;71395;43.488;1.472;2023-07-13T10:34:50;100371.44;;;25.94;44.19
81931;BME280;71395;43.488;1.472;2023-07-13T10:37:23;100364.88;;;25.98;44.73
81931;BME280;71395;43.488;1.472;2023-07-13T10:39:53;100365.66;;;25.99;44.29
81931;BME280;71395;43.488;1.472;2023-07-13T10:42:29;100350.16;;;25.91;44.08
81931;BME280;71395;43.488;1.472;2023-07-13T10:44:56;100363.81;;;26.03;44.64
81931;BME280;71395;43.488;1.472;2023-07-13T10:47:21;100367.00;;;26.05;44.91
81931;BME280;71395;43.488;1.472;2023-07-13T10:49:54;100367.00;;;26.05;44.46
81931;BME280;71395;43.488;1.472;2023-07-13T10:55:05;100369.84;;;26.09;45.16
81931;BME280;71395;43.488;1.472;2023-07-13T10:57:42;100363.13;;;26.06;44.54
81931;BME280;71395;43.488;1.472;2023-07-13T11:00:17;100371.97;;;26.15;45.10
81931;BME280;71395;43.488;1.472;2023-07-13T11:02:43;100352.94;;;26.07;44.82
81931;BME280;71395;43.488;1.472;2023-07-13T11:05:32;100363.03;;;26.18;44.42
81931;BME280;71395;43.488;1.472;2023-07-13T11:08:16;100372.88;;;26.19;45.03
81931;BME280;71395;43.488;1.472;2023-07-13T11:10:54;100366.22;;;26.20;44.56
81931;BME280;71395;43.488;1.472;2023-07-13T11:16:37;100355.69;;;26.22;45.01
81931;BME280;71395;43.488;1.472;2023-07-13T11:21:32;100337.88;;;26.16;45.23
81931;BME280;71395;43.488;1.472;2023-07-13T11:24:17;100348.75;;;26.28;44.47
81931;BME280;71395;43.488;1.472;2023-07-13T11:31:43;100345.75;;;26.34;44.90
81931;BME280;71395;43.488;1.472;2023-07-13T11:34:19;100342.91;;;26.30;44.76
81931;BME280;71395;43.488;1.472;2023-07-13T11:36:47;100354.44;;;26.36;44.93
81931;BME280;71395;43.488;1.472;2023-07-13T11:42:00;100337.94;;;26.36;44.99
81931;BME280;71395;43.488;1.472;2023-07-13T11:44:28;100330.13;;;26.38;44.97
81931;BME280;71395;43.488;1.472;2023-07-13T11:46:56;100311.84;;;26.29;44.96
81931;BME280;71395;43.488;1.472;2023-07-13T11:49:28;100333.88;;;26.45;45.00
81931;BME280;71395;43.488;1.472;2023-07-13T11:51:55;100327.03;;;26.39;45.05
81931;BME280;71395;43.488;1.472;2023-07-13T11:54:30;100322.53;;;26.47;45.33
81931;BME280;71395;43.488;1.472;2023-07-13T11:57:10;100321.72;;;26.46;45.03
81931;BME280;71395;43.488;1.472;2023-07-13T11:59:40;100321.72;;;26.46;45.30
81931;BME280;71395;43.488;1.472;2023-07-13T12:02:33;100311.97;;;26.49;44.73
81931;BME280;71395;43.488;1.472;2023-07-13T12:05:00;100308.00;;;26.46;45.51
81931;BME280;71395;43.488;1.472;2023-07-13T12:07:30;100297.13;;;26.53;45.52
81931;BME280;71395;43.488;1.472;2023-07-13T12:12:54;100296.34;;;26.53;44.91
81931;BME280;71395;43.488;1.472;2023-07-13T12:15:21;100315.75;;;26.60;45.54
81931;BME280;71395;43.488;1.472;2023-07-13T12:17:48;100301.66;;;26.62;45.34
81931;BME280;71395;43.488;1.472;2023-07-13T12:22:50;100297.84;;;26.66;45.49
81931;BME280;71395;43.488;1.472;2023-07-13T12:25:16;100293.84;;;26.64;45.38
81931;BME280;71395;43.488;1.472;2023-07-13T12:27:47;100294.28;;;26.66;44.87
81931;BME280;71395;43.488;1.472;2023-07-13T12:30:24;100294.81;;;26.71;44.89
81931;BME280;71395;43.488;1.472;2023-07-13T12:33:08;100299.94;;;26.73;44.91
81931;BME280;71395;43.488;1.472;2023-07-13T12:35:56;100295.22;;;26.73;45.11
81931;BME280;71395;43.488;1.472;2023-07-13T12:38:24;100289.34;;;26.75;45.30
81931;BME280;71395;43.488;1.472;2023-07-13T12:40:52;100292.56;;;26.77;45.12
81931;BME280;71395;43.488;1.472;2023-07-13T12:43:20;100285.53;;;26.79;44.71
81931;BME280;71395;43.488;1.472;2023-07-13T12:45:57;100284.81;;;26.83;44.75
81931;BME280;71395;43.488;1.472;2023-07-13T12:48:23;100290.31;;;26.83;44.71
81931;BME280;71395;43.488;1.472;2023-07-13T12:50:49;100288.38;;;26.83;44.65
81931;BME280;71395;43.488;1.472;2023-07-13T12:53:19;100285.69;;;26.87;44.66
81931;BME280;71395;43.488;1.472;2023-07-13T12:55:56;100287.66;;;26.86;44.52
81931;BME280;71395;43.488;1.472;2023-07-13T12:58:41;100286.13;;;26.89;45.15
81931;BME280;71395;43.488;1.472;2023-07-13T13:01:09;100295.13;;;26.86;44.92
81931;BME280;71395;43.488;1.472;2023-07-13T13:03:40;100285.69;;;26.87;44.83
81931;BME280;71395;43.488;1.472;2023-07-13T13:08:48;100295.25;;;26.93;45.00
81931;BME280;71395;43.488;1.472;2023-07-13T13:11:18;100277.16;;;26.92;44.58
81931;BME280;71395;43.488;1.472;2023-07-13T13:13:44;100278.75;;;26.93;44.41
81931;BME280;71395;43.488;1.472;2023-07-13T13:18:46;100278.03;;;26.96;44.99
81931;BME280;71395;43.488;1.472;2023-07-13T13:21:12;100279.63;;;26.97;44.13
81931;BME280;71395;43.488;1.472;2023-07-13T13:23:38;100279.63;;;26.97;44.23
81931;BME280;71395;43.488;1.472;2023-07-13T13:26:08;100275.69;;;26.98;44.24
81931;BME280;71395;43.488;1.472;2023-07-13T13:28:34;100263.91;;;26.97;44.10
81931;BME280;71395;43.488;1.472;2023-07-13T13:31:00;100268.16;;;26.95;44.59
81931;BME280;71395;43.488;1.472;2023-07-13T13:33:25;100267.16;;;27.03;44.07
81931;BME280;71395;43.488;1.472;2023-07-13T13:35:51;100265.56;;;27.02;44.04
81931;BME280;71395;43.488;1.472;2023-07-13T13:38:21;100266.44;;;27.06;44.16
81931;BME280;71395;43.488;1.472;2023-07-13T13:40:47;100266.44;;;27.06;44.49
81931;BME280;71395;43.488;1.472;2023-07-13T13:43:17;100259.44;;;27.09;44.21
81931;BME280;71395;43.488;1.472;2023-07-13T13:45:44;100251.06;;;27.05;44.48
81931;BME280;71395;43.488;1.472;2023-07-13T13:48:15;100251.53;;;27.07;44.22
81931;BME280;71395;43.488;1.472;2023-07-13T13:50:42;100257.13;;;27.11;44.63
81931;BME280;71395;43.488;1.472;2023-07-13T13:53:12;100258.72;;;27.12;44.40
81931;BME280;71395;43.488;1.472;2023-07-13T13:55:39;100256.38;;;27.14;44.40
81931;BME280;71395;43.488;1.472;2023-07-13T13:58:08;100260.31;;;27.13;44.26
81931;BME280;71395;43.488;1.472;2023-07-13T14:00:34;100253.28;;;27.15;44.56
81931;BME280;71395;43.488;1.472;2023-07-13T14:03:00;100256.47;;;27.17;43.82
81931;BME280;71395;43.488;1.472;2023-07-13T14:05:26;100253.28;;;27.15;43.80
81931;BME280;71395;43.488;1.472;2023-07-13T14:07:52;100256.47;;;27.17;44.16
81931;BME280;71395;43.488;1.472;2023-07-13T14:10:20;100242.28;;;27.15;44.47
81931;BME280;71395;43.488;1.472;2023-07-13T14:12:51;100242.41;;;27.22;43.53
81931;BME280;71395;43.488;1.472;2023-07-13T14:15:28;100235.63;;;27.16;44.09
81931;BME280;71395;43.488;1.472;2023-07-13T14:17:56;100236.91;;;27.22;43.76
81931;BME280;71395;43.488;1.472;2023-07-13T14:20:24;100235.38;;;27.25;44.25
81931;BME280;71395;43.488;1.472;2023-07-13T14:22:51;100237.78;;;27.26;43.72
81931;BME280;71395;43.488;1.472;2023-07-13T14:25:19;100233.06;;;27.27;44.45
81931;BME280;71395;43.488;1.472;2023-07-13T14:27:48;100240.16;;;27.28;44.01
81931;BME280;71395;43.488;1.472;2023-07-13T14:30:16;100241.75;;;27.29;44.13
81931;BME280;71395;43.488;1.472;2023-07-13T14:32:42;100236.59;;;27.27;44.23
81931;BME280;71395;43.488;1.472;2023-07-13T14:35:12;100231.16;;;27.31;44.36
81931;BME280;71395;43.488;1.472;2023-07-13T14:37:39;100238.63;;;27.30;44.32
81931;BME280;71395;43.488;1.472;2023-07-13T14:40:17;100224.88;;;27.30;44.23
81931;BME280;71395;43.488;1.472;2023-07-13T14:42:43;100225.28;;;27.33;43.55
81931;BME280;71395;43.488;1.472;2023-07-13T14:45:16;100220.56;;;27.33;43.76
81931;BME280;71395;43.488;1.472;2023-07-13T14:47:43;100222.97;;;27.35;44.07
81931;BME280;71395;43.488;1.472;2023-07-13T14:50:15;100217.91;;;27.37;44.28
81931;BME280;71395;43.488;1.472;2023-07-13T14:52:42;100217.09;;;27.36;44.29
81931;BME280;71395;43.488;1.472;2023-07-13T14:55:16;100213.25;;;27.41;44.19
81931;BME280;71395;43.488;1.472;2023-07-13T14:57:42;100210.06;;;27.39;44.01
81931;BME280;71395;43.488;1.472;2023-07-13T15:00:15;100208.16;;;27.43;43.97
81931;BME280;71395;43.488;1.472;2023-07-13T15:02:45;100202.59;;;27.39;43.66
81931;BME280;71395;43.488;1.472;2023-07-13T15:05:23;100204.25;;;27.44;43.89
81931;BME280;71395;43.488;1.472;2023-07-13T15:07:50;100188.47;;;27.41;44.09
81931;BME280;71395;43.488;1.472;2023-07-13T15:10:22;100198.75;;;27.44;44.14
81931;BME280;71395;43.488;1.472;2023-07-13T15:12:48;100200.78;;;27.47;43.69
81931;BME280;71395;43.488;1.472;2023-07-13T15:15:14;100183.38;;;27.43;44.01
81931;BME280;71395;43.488;1.472;2023-07-13T15:17:43;100190.16;;;27.49;43.71
81931;BME280;71395;43.488;1.472;2023-07-13T15:20:23;100182.34;;;27.51;43.64
81931;BME280;71395;43.488;1.472;2023-07-13T15:22:51;100177.94;;;27.46;43.69
81931;BME280;71395;43.488;1.472;2023-07-13T15:25:19;100181.50;;;27.47;43.99
81931;BME280;71395;43.488;1.472;2023-07-13T15:27:45;100180.81;;;27.53;43.81
81931;BME280;71395;43.488;1.472;2023-07-13T15:30:11;100191.47;;;27.55;43.48
81931;BME280;71395;43.488;1.472;2023-07-13T15:32:37;100191.47;;;27.55;43.29
81931;BME280;71395;43.488;1.472;2023-07-13T15:35:03;100181.59;;;27.54;43.77
81931;BME280;71395;43.488;1.472;2023-07-13T15:37:29;100183.25;;;27.58;43.10
81931;BME280;71395;43.488;1.472;2023-07-13T15:39:55;100169.78;;;27.53;43.55
81931;BME280;71395;43.488;1.472;2023-07-13T15:42:22;100188.84;;;27.62;43.60
81931;BME280;71395;43.488;1.472;2023-07-13T15:44:47;100176.22;;;27.61;43.10
81931;BME280;71395;43.488;1.472;2023-07-13T15:47:14;100179.41;;;27.63;43.36
81931;BME280;71395;43.488;1.472;2023-07-13T15:49:40;100176.25;;;27.65;43.44
81931;BME280;71395;43.488;1.472;2023-07-13T15:52:23;100172.38;;;27.66;43.29
81931;BME280;71395;43.488;1.472;2023-07-13T15:54:49;100168.38;;;27.63;43.13
81931;BME280;71395;43.488;1.472;2023-07-13T15:57:15;100163.63;;;27.60;43.45
81931;BME280;71395;43.488;1.472;2023-07-13T15:59:41;100173.16;;;27.66;43.07
81931;BME280;71395;43.488;1.472;2023-07-13T16:02:19;100161.28;;;27.62;42.71
81931;BME280;71395;43.488;1.472;2023-07-13T16:04:48;100178.28;;;27.68;43.15
81931;BME280;71395;43.488;1.472;2023-07-13T16:07:15;100162.06;;;27.63;42.83
81931;BME280;71395;43.488;1.472;2023-07-13T16:09:46;100170.03;;;27.68;42.87
81931;BME280;71395;43.488;1.472;2023-07-13T16:12:15;100161.38;;;27.69;42.87
81931;BME280;71395;43.488;1.472;2023-07-13T16:14:41;100154.75;;;27.70;43.04
81931;BME280;71395;43.488;1.472;2023-07-13T16:17:11;100146.47;;;27.70;42.57
81931;BME280;71395;43.488;1.472;2023-07-13T16:19:38;100151.16;;;27.70;42.81
81931;BME280;71395;43.488;1.472;2023-07-13T16:22:04;100130.59;;;27.64;42.63
81931;BME280;71395;43.488;1.472;2023-07-13T16:24:31;100142.56;;;27.71;42.54
81931;BME280;71395;43.488;1.472;2023-07-13T16:26:58;100136.28;;;27.71;42.52
81931;BME280;71395;43.488;1.472;2023-07-13T16:29:29;100138.56;;;27.69;42.59
81931;BME280;71395;43.488;1.472;2023-07-13T16:32:00;100152.84;;;27.74;42.47
81931;BME280;71395;43.488;1.472;2023-07-13T16:34:33;100144.16;;;27.72;42.59
81931;BME280;71395;43.488;1.472;2023-07-13T16:36:59;100135.38;;;27.67;42.79
81931;BME280;71395;43.488;1.472;2023-07-13T16:39:26;100140.63;;;27.72;42.37
81931;BME280;71395;43.488;1.472;2023-07-13T16:41:58;100134.72;;;27.73;42.79
81931;BME280;71395;43.488;1.472;2023-07-13T16:44:25;100143.78;;;27.74;42.10
81931;BME280;71395;43.488;1.472;2023-07-13T16:46:54;100104.94;;;27.56;42.20
81931;BME280;71395;43.488;1.472;2023-07-13T16:49:36;100136.28;;;27.71;42.09
81931;BME280;71395;43.488;1.472;2023-07-13T16:52:02;100133.03;;;27.69;42.33
81931;BME280;71395;43.488;1.472;2023-07-13T16:54:34;100128.03;;;27.74;42.55
81931;BME280;71395;43.488;1.472;2023-07-13T16:57:02;100135.50;;;27.74;41.88
81931;BME280;71395;43.488;1.472;2023-07-13T16:59:34;100094.25;;;27.54;41.98
81931;BME280;71395;43.488;1.472;2023-07-13T17:02:01;100117.31;;;27.69;42.39
81931;BME280;71395;43.488;1.472;2023-07-13T17:04:29;100111.91;;;27.73;42.14
81931;BME280;71395;43.488;1.472;2023-07-13T17:06:57;100122.97;;;27.76;42.53
81931;BME280;71395;43.488;1.472;2023-07-13T17:09:24;100124.56;;;27.77;42.60
81931;BME280;71395;43.488;1.472;2023-07-13T17:11:50;100120.63;;;27.78;42.32
81931;BME280;71395;43.488;1.472;2023-07-13T17:14:21;100117.88;;;27.78;42.34
81931;BME280;71395;43.488;1.472;2023-07-13T17:16:53;100119.47;;;27.79;41.77
81931;BME280;71395;43.488;1.472;2023-07-13T17:19:26;100115.50;;;27.77;42.14
81931;BME280;71395;43.488;1.472;2023-07-13T17:21:53;100118.25;;;27.77;42.02
81931;BME280;71395;43.488;1.472;2023-07-13T17:24:25;100114.34;;;27.78;42.43
81931;BME280;71395;43.488;1.472;2023-07-13T17:26:52;100106.50;;;27.80;42.29
81931;BME280;71395;43.488;1.472;2023-07-13T17:29:20;100104.53;;;27.80;42.14
81931;BME280;71395;43.488;1.472;2023-07-13T17:31:46;100079.50;;;27.66;41.85
81931;BME280;71395;43.488;1.472;2023-07-13T17:34:14;100104.53;;;27.80;41.76
81931;BME280;71395;43.488;1.472;2023-07-13T17:36:43;100088.19;;;27.68;41.82
81931;BME280;71395;43.488;1.472;2023-07-13T17:39:17;100074.72;;;27.63;41.46
81931;BME280;71395;43.488;1.472;2023-07-13T17:41:46;100100.88;;;27.73;41.24
81931;BME280;71395;43.488;1.472;2023-07-13T17:44:14;100102.53;;;27.77;41.61
81931;BME280;71395;43.488;1.472;2023-07-13T17:46:42;100106.50;;;27.80;41.38
81931;BME280;71395;43.488;1.472;2023-07-13T17:49:19;100099.38;;;27.79;40.76
81931;BME280;71395;43.488;1.472;2023-07-13T17:51:47;100101.72;;;27.77;40.56
81931;BME280;71395;43.488;1.472;2023-07-13T17:54:17;100101.78;;;27.80;40.82
81931;BME280;71395;43.488;1.472;2023-07-13T17:56:44;100112.81;;;27.80;39.96
81931;BME280;71395;43.488;1.472;2023-07-13T17:59:11;100085.81;;;27.67;39.95
81931;BME280;71395;43.488;1.472;2023-07-13T18:01:37;100108.09;;;27.81;40.35
81931;BME280;71395;43.488;1.472;2023-07-13T18:04:12;100106.13;;;27.81;39.54
81931;BME280;71395;43.488;1.472;2023-07-13T18:06:41;100081.50;;;27.69;39.48
81931;BME280;71395;43.488;1.472;2023-07-13T18:09:18;100101.78;;;27.80;39.12
81931;BME280;71395;43.488;1.472;2023-07-13T18:11:44;100098.25;;;27.80;39.73
81931;BME280;71395;43.488;1.472;2023-07-13T18:14:10;100104.53;;;27.80;39.51
81931;BME280;71395;43.488;1.472;2023-07-13T18:16:39;100078.66;;;27.62;38.79
81931;BME280;71395;43.488;1.472;2023-07-13T18:19:20;100092.22;;;27.74;39.02
81931;BME280;71395;43.488;1.472;2023-07-13T18:21:50;100105.28;;;27.77;38.87
81931;BME280;71395;43.488;1.472;2023-07-13T18:24:16;100087.47;;;27.71;38.77
81931;BME280;71395;43.488;1.472;2023-07-13T18:26:42;100078.72;;;27.66;38.36
81931;BME280;71395;43.488;1.472;2023-07-13T18:29:07;100096.22;;;27.77;38.30
81931;BME280;71395;43.488;1.472;2023-07-13T18:31:35;100066.78;;;27.58;38.47
81931;BME280;71395;43.488;1.472;2023-07-13T18:34:01;100066.00;;;27.57;38.54
81931;BME280;71395;43.488;1.472;2023-07-13T18:36:29;100045.72;;;27.43;38.21
81931;BME280;71395;43.488;1.472;2023-07-13T18:38:56;100062.44;;;27.57;38.18
81931;BME280;71395;43.488;1.472;2023-07-13T18:41:23;100096.22;;;27.77;38.14
81931;BME280;71395;43.488;1.472;2023-07-13T18:43:50;100085.44;;;27.68;38.26
81931;BME280;71395;43.488;1.472;2023-07-13T18:46:23;100089.91;;;27.76;38.10
81931;BME280;71395;43.488;1.472;2023-07-13T18:48:51;100090.28;;;27.75;38.08
81931;BME280;71395;43.488;1.472;2023-07-13T18:51:17;100022.28;;;27.29;38.12
81931;BME280;71395;43.488;1.472;2023-07-13T18:53:42;100096.59;;;27.75;38.44
81931;BME280;71395;43.488;1.472;2023-07-13T18:56:09;100078.34;;;27.67;38.34
81931;BME280;71395;43.488;1.472;2023-07-13T18:58:40;100016.69;;;27.22;38.78
81931;BME280;71395;43.488;1.472;2023-07-13T19:01:50;100071.56;;;27.61;38.43